< < Back
Terminal Aerodrome Forecast


Current Version              Previous Versions:   1  2  3  4  5  6  7  8  9  

Terminal Aerodrome Forecast

088
FTUS42 KCAE 280706 AAA
TAFAGS
TAF AMD
KAGS 280706Z 2807/2906 VRB03KT P6SM BKN070
     FM281500 08007KT P6SM SCT050 SCT150=

Latest METAR

372
SAUS70 KWBC 281000 RRF
MTRAGS
METAR KAGS 280953Z AUTO 00000KT 10SM SCT065 23/21 A3010 RMK AO2 SLP189
T02280211


USA.gov is the U.S. government's official web portal to all federal, state and local government web resources and services.